createdAt,value
2022-12-28T00:02:20.197Z,1.30
2022-12-28T00:04:48.606Z,1.40
2022-12-28T00:07:17.001Z,1.40
2022-12-28T00:09:45.227Z,1.50
2022-12-28T00:12:14.715Z,1.50
2022-12-28T00:14:42.861Z,1.60
2022-12-28T00:17:17.175Z,1.60
2022-12-28T00:19:48.042Z,1.70
2022-12-28T00:22:16.348Z,1.60
2022-12-28T00:24:44.570Z,1.70
2022-12-28T00:27:17.287Z,1.50
2022-12-28T00:29:47.473Z,1.50
2022-12-28T00:32:15.675Z,1.50
2022-12-28T00:34:43.885Z,1.50
2022-12-28T00:37:19.289Z,1.40
2022-12-28T00:39:47.448Z,1.40
2022-12-28T00:42:22.059Z,1.40
2022-12-28T00:44:52.119Z,1.30
2022-12-28T00:47:20.284Z,1.30
2022-12-28T00:49:48.387Z,1.40
2022-12-28T00:52:16.650Z,1.50
2022-12-28T00:54:45.160Z,1.50
2022-12-28T00:57:14.283Z,1.50
2022-12-28T00:59:44.165Z,1.50
2022-12-28T01:02:12.376Z,1.60
2022-12-28T01:04:40.558Z,1.60
2022-12-28T01:07:08.807Z,1.70
2022-12-28T01:09:37.077Z,1.80
2022-12-28T01:12:06.655Z,1.70
2022-12-28T01:14:34.862Z,1.80
2022-12-28T01:17:04.433Z,1.80
2022-12-28T01:19:35.265Z,1.90
2022-12-28T01:22:03.734Z,1.90
2022-12-28T01:24:32.071Z,1.80
2022-12-28T01:27:00.455Z,1.90
2022-12-28T01:29:29.010Z,1.90
2022-12-28T01:31:57.647Z,1.90
2022-12-28T01:34:27.635Z,1.90
2022-12-28T01:36:55.821Z,1.80
2022-12-28T01:39:24.198Z,1.90
2022-12-28T01:41:52.509Z,1.90
2022-12-28T01:44:42.986Z,1.90
2022-12-28T01:47:17.134Z,1.90
2022-12-28T01:50:00.895Z,1.80
2022-12-28T01:52:33.425Z,1.80
2022-12-28T01:55:06.206Z,1.80
2022-12-28T01:57:39.126Z,1.80
2022-12-28T02:00:10.753Z,1.80
2022-12-28T02:02:39.889Z,1.80
2022-12-28T02:05:10.775Z,1.80
2022-12-28T02:07:48.612Z,1.80
2022-12-28T02:10:42.474Z,1.70
2022-12-28T02:13:08.841Z,1.70
2022-12-28T02:15:37.269Z,1.70
2022-12-28T02:18:05.710Z,1.80
2022-12-28T02:20:45.333Z,1.70
2022-12-28T02:23:38.656Z,1.80
2022-12-28T02:26:36.878Z,1.80
2022-12-28T02:29:19.704Z,1.90
2022-12-28T02:32:01.284Z,2.00
2022-12-28T02:34:35.006Z,2.00
2022-12-28T02:37:14.945Z,2.10
2022-12-28T02:39:48.516Z,2.10
2022-12-28T02:42:17.995Z,2.10
2022-12-28T02:45:05.029Z,2.10
2022-12-28T02:47:50.735Z,2.10
2022-12-28T02:50:19.643Z,2.10
2022-12-28T02:53:12.971Z,2.10
2022-12-28T02:56:10.219Z,2.00
2022-12-28T02:59:10.466Z,2.10
2022-12-28T03:02:13.960Z,2.10
2022-12-28T03:04:59.363Z,2.10
2022-12-28T03:07:48.487Z,2.10
2022-12-28T03:10:24.648Z,2.00
2022-12-28T03:13:00.088Z,2.00
2022-12-28T03:15:32.027Z,2.00
2022-12-28T03:18:24.217Z,2.00
2022-12-28T03:21:13.589Z,2.00
2022-12-28T03:24:01.363Z,2.00
2022-12-28T03:26:49.672Z,1.90
2022-12-28T03:29:45.140Z,2.00
2022-12-28T03:32:15.799Z,2.00
2022-12-28T03:34:45.712Z,2.00
2022-12-28T03:37:18.802Z,2.00
2022-12-28T03:40:00.477Z,2.10
2022-12-28T03:42:51.686Z,2.00
2022-12-28T03:45:45.856Z,2.00
2022-12-28T03:48:21.010Z,2.00
2022-12-28T03:50:54.905Z,2.00
2022-12-28T03:53:29.235Z,1.90
2022-12-28T03:56:14.170Z,1.90
2022-12-28T03:58:43.518Z,1.80
2022-12-28T04:01:12.773Z,1.80
2022-12-28T04:03:41.789Z,1.70
2022-12-28T04:06:16.275Z,1.70
2022-12-28T04:08:45.291Z,1.70
2022-12-28T04:11:14.636Z,1.60
2022-12-28T04:13:42.836Z,1.60
2022-12-28T04:16:13.613Z,1.50
2022-12-28T04:18:42.968Z,1.50
2022-12-28T04:21:13.841Z,1.50
2022-12-28T04:23:43.000Z,1.50
2022-12-28T04:26:16.165Z,1.50
2022-12-28T04:28:45.169Z,1.50
2022-12-28T04:31:15.469Z,1.60
2022-12-28T04:33:43.685Z,1.60
2022-12-28T04:36:15.337Z,1.50
2022-12-28T04:38:44.192Z,1.60
2022-12-28T04:41:12.997Z,1.60
2022-12-28T04:43:41.857Z,1.60
2022-12-28T04:46:14.108Z,1.60
2022-12-28T04:48:42.570Z,1.70
2022-12-28T04:51:17.874Z,1.70
2022-12-28T04:53:46.269Z,1.70
2022-12-28T04:56:15.230Z,1.80
2022-12-28T04:58:43.881Z,1.80
2022-12-28T05:01:14.477Z,1.90
2022-12-28T05:03:52.557Z,2.00
2022-12-28T05:06:27.388Z,2.00
2022-12-28T05:08:56.703Z,1.90
2022-12-28T05:11:28.766Z,2.00
2022-12-28T05:14:02.531Z,1.90
2022-12-28T05:16:31.576Z,1.80
2022-12-28T05:18:59.725Z,1.90
2022-12-28T05:21:30.267Z,1.90
2022-12-28T05:23:58.917Z,1.80
2022-12-28T05:26:28.762Z,1.80
2022-12-28T05:28:58.593Z,1.90
2022-12-28T05:31:27.394Z,1.90
2022-12-28T05:33:55.872Z,1.90
2022-12-28T05:36:28.820Z,1.90
2022-12-28T05:38:57.916Z,1.90
2022-12-28T05:41:28.062Z,1.90
2022-12-28T05:43:56.953Z,2.00
2022-12-28T05:46:27.481Z,2.00
2022-12-28T05:48:56.924Z,2.10
2022-12-28T05:51:28.641Z,2.20
2022-12-28T05:53:57.734Z,2.20
2022-12-28T05:56:27.860Z,2.20
2022-12-28T05:58:57.574Z,2.30
2022-12-28T06:01:27.593Z,2.30
2022-12-28T06:03:58.636Z,2.30
2022-12-28T06:06:28.793Z,2.20
2022-12-28T06:08:57.307Z,2.20
2022-12-28T06:11:27.705Z,3.00
2022-12-28T06:13:56.259Z,2.20
2022-12-28T06:16:25.883Z,2.20
2022-12-28T06:18:54.302Z,2.20
2022-12-28T06:21:25.372Z,2.20
2022-12-28T06:23:58.726Z,2.10
2022-12-28T06:26:28.476Z,2.10
2022-12-28T06:28:59.965Z,2.10
2022-12-28T06:31:32.852Z,2.10
2022-12-28T06:34:02.397Z,2.00
2022-12-28T06:36:35.074Z,2.00
2022-12-28T06:39:06.554Z,1.90
2022-12-28T06:41:35.073Z,1.90
2022-12-28T06:44:06.362Z,1.80
2022-12-28T06:46:35.880Z,1.80
2022-12-28T06:49:03.994Z,1.80
2022-12-28T06:51:39.191Z,1.80
2022-12-28T06:54:12.205Z,1.70
2022-12-28T06:56:46.809Z,1.70
2022-12-28T06:59:16.075Z,1.80
2022-12-28T07:01:46.067Z,1.70
2022-12-28T07:04:14.653Z,1.60
2022-12-28T07:06:55.016Z,1.60
2022-12-28T07:09:24.589Z,1.60
2022-12-28T07:11:52.699Z,1.60
2022-12-28T07:14:20.899Z,1.70
2022-12-28T07:16:50.013Z,1.60
2022-12-28T07:19:18.194Z,1.60
2022-12-28T07:21:46.317Z,1.50
2022-12-28T07:24:14.647Z,1.50
2022-12-28T07:26:44.816Z,1.50
2022-12-28T07:29:12.953Z,1.50
2022-12-28T07:31:45.726Z,1.40
2022-12-28T07:34:15.309Z,1.50
2022-12-28T07:36:43.844Z,1.50
2022-12-28T07:39:12.143Z,1.50
2022-12-28T07:41:40.466Z,1.50
2022-12-28T07:44:09.999Z,1.50
2022-12-28T07:46:38.738Z,1.50
2022-12-28T07:49:07.043Z,1.60
2022-12-28T07:51:36.656Z,1.60
2022-12-28T07:54:05.623Z,1.50
2022-12-28T07:59:04.668Z,1.40
2022-12-28T08:01:35.974Z,1.50
2022-12-28T08:04:06.170Z,1.60
2022-12-28T08:06:36.187Z,1.60
2022-12-28T08:09:05.165Z,1.60
2022-12-28T08:11:35.239Z,1.60
2022-12-28T08:14:03.717Z,1.60
2022-12-28T08:16:34.895Z,1.70
2022-12-28T08:19:03.450Z,1.80
2022-12-28T08:21:33.832Z,1.80
2022-12-28T08:24:02.449Z,1.90
2022-12-28T08:26:32.547Z,2.00
2022-12-28T08:29:02.271Z,2.10
2022-12-28T08:31:33.230Z,2.20
2022-12-28T08:34:04.900Z,2.30
2022-12-28T08:36:34.197Z,2.40
2022-12-28T08:39:02.968Z,2.40
2022-12-28T08:41:31.477Z,2.50
2022-12-28T08:43:59.777Z,2.60
2022-12-28T08:46:33.239Z,2.60
2022-12-28T08:49:03.388Z,2.60
2022-12-28T08:51:34.350Z,2.70
2022-12-28T08:54:03.252Z,2.70
2022-12-28T08:56:33.250Z,2.60
2022-12-28T08:59:03.824Z,2.50
2022-12-28T09:01:40.820Z,2.50
2022-12-28T09:04:16.578Z,2.50
2022-12-28T09:06:45.646Z,2.50
2022-12-28T09:09:16.288Z,2.50
2022-12-28T09:11:45.133Z,2.50
2022-12-28T09:14:22.061Z,2.50
2022-12-28T09:16:51.306Z,2.50
2022-12-28T09:19:21.347Z,2.50
2022-12-28T09:21:52.560Z,2.50
2022-12-28T09:24:21.123Z,2.60
2022-12-28T09:26:52.510Z,2.60
2022-12-28T09:29:20.846Z,2.60
2022-12-28T09:31:48.917Z,2.70
2022-12-28T09:37:08.550Z,3.00
2022-12-28T09:39:37.899Z,3.20
2022-12-28T09:42:13.990Z,3.30
2022-12-28T09:44:56.719Z,3.60
2022-12-28T09:47:33.315Z,3.70
2022-12-28T09:50:08.560Z,3.70
2022-12-28T09:52:49.816Z,4.00
2022-12-28T09:55:20.323Z,3.90
2022-12-28T09:57:51.818Z,3.80
2022-12-28T10:00:23.063Z,3.90
2022-12-28T10:02:55.104Z,3.90
2022-12-28T10:05:23.918Z,4.00
2022-12-28T10:07:56.143Z,3.90
2022-12-28T10:10:25.989Z,4.10
2022-12-28T10:12:54.966Z,4.20
2022-12-28T10:15:27.448Z,4.30
2022-12-28T10:17:55.597Z,4.40
2022-12-28T10:20:24.414Z,4.50
2022-12-28T10:22:57.497Z,4.60
2022-12-28T10:25:27.600Z,4.70
2022-12-28T10:27:56.892Z,4.80
2022-12-28T10:30:27.711Z,4.80
2022-12-28T10:33:02.537Z,5.00
2022-12-28T10:35:35.531Z,5.10
2022-12-28T10:38:07.715Z,5.20
2022-12-28T10:40:40.010Z,5.30
2022-12-28T10:43:19.444Z,5.20
2022-12-28T10:45:50.965Z,5.30
2022-12-28T10:48:23.035Z,5.30
2022-12-28T10:50:54.430Z,5.20
2022-12-28T10:53:29.616Z,5.30
2022-12-28T10:56:07.521Z,5.10
2022-12-28T10:58:36.110Z,5.00
2022-12-28T11:01:08.135Z,4.90
2022-12-28T11:03:38.424Z,4.80
2022-12-28T11:06:26.392Z,4.80
2022-12-28T11:09:16.840Z,4.70
2022-12-28T11:11:46.637Z,4.60
2022-12-28T11:14:23.239Z,4.70
2022-12-28T11:16:51.639Z,4.60
2022-12-28T11:19:20.054Z,4.70
2022-12-28T11:21:49.092Z,4.70
2022-12-28T11:24:19.996Z,4.50
2022-12-28T11:26:50.377Z,4.50
2022-12-28T11:29:20.553Z,4.50
2022-12-28T11:31:55.506Z,4.60
2022-12-28T11:34:28.446Z,4.90
2022-12-28T11:36:58.106Z,4.90
2022-12-28T11:39:45.098Z,4.70
2022-12-28T11:42:39.155Z,4.80
2022-12-28T11:45:05.120Z,4.70
2022-12-28T11:47:34.187Z,4.70
2022-12-28T11:50:42.673Z,4.60
2022-12-28T11:53:52.233Z,4.60
2022-12-28T11:56:23.856Z,4.50
2022-12-28T11:59:22.732Z,4.70
2022-12-28T12:01:56.072Z,4.70
2022-12-28T12:04:35.725Z,4.90
2022-12-28T12:07:31.720Z,5.10
2022-12-28T12:10:30.494Z,5.30
2022-12-28T12:13:00.927Z,5.40
2022-12-28T12:15:44.032Z,5.30
2022-12-28T12:18:20.693Z,5.10
2022-12-28T12:20:55.114Z,5.30
2022-12-28T12:23:35.504Z,5.40
2022-12-28T12:26:20.874Z,5.20
2022-12-28T12:28:52.222Z,5.30
2022-12-28T12:31:28.103Z,5.20
2022-12-28T12:34:01.279Z,5.40
2022-12-28T12:37:06.313Z,5.60
2022-12-28T12:40:20.332Z,6.00
2022-12-28T12:43:08.656Z,6.10
2022-12-28T12:45:48.860Z,6.30
2022-12-28T12:48:36.100Z,6.50
2022-12-28T12:51:18.136Z,6.80
2022-12-28T12:54:05.196Z,7.10
2022-12-28T12:56:51.647Z,7.30
2022-12-28T12:59:34.544Z,7.50
2022-12-28T13:02:21.597Z,7.90
2022-12-28T13:04:53.297Z,8.30
2022-12-28T13:07:23.857Z,8.40
2022-12-28T13:09:54.961Z,8.60
2022-12-28T13:12:24.734Z,9.00
2022-12-28T13:15:00.331Z,9.10
2022-12-28T13:17:30.938Z,8.90
2022-12-28T13:20:19.287Z,9.10
2022-12-28T13:22:48.966Z,9.10
2022-12-28T13:25:28.980Z,9.20
2022-12-28T13:27:58.605Z,9.50
2022-12-28T13:30:28.919Z,9.50
2022-12-28T13:33:03.961Z,9.80
2022-12-28T13:35:36.858Z,9.70
2022-12-28T13:38:14.793Z,9.50
2022-12-28T13:40:51.434Z,9.40
2022-12-28T13:43:48.283Z,9.40
2022-12-28T13:46:20.412Z,9.20
2022-12-28T13:48:57.877Z,8.90
2022-12-28T13:51:27.071Z,8.90
2022-12-28T13:54:00.457Z,8.80
2022-12-28T13:56:31.305Z,9.00
2022-12-28T13:59:04.056Z,9.10
2022-12-28T14:01:37.170Z,9.10
2022-12-28T14:07:04.015Z,9.00
2022-12-28T14:09:33.343Z,9.20
2022-12-28T14:12:01.710Z,9.30
2022-12-28T14:14:30.236Z,9.30
2022-12-28T14:17:05.446Z,9.30
2022-12-28T14:19:37.099Z,9.20
2022-12-28T14:22:28.729Z,9.30
2022-12-28T14:25:01.755Z,9.40
2022-12-28T14:27:31.228Z,9.40
2022-12-28T14:29:59.671Z,9.40
2022-12-28T14:32:28.075Z,9.90
2022-12-28T14:35:02.247Z,9.50
2022-12-28T14:37:35.988Z,9.50
2022-12-28T14:40:06.928Z,9.50
2022-12-28T14:42:35.375Z,9.60
2022-12-28T14:45:36.342Z,9.50
2022-12-28T14:48:33.324Z,9.50
2022-12-28T14:51:04.174Z,9.40
2022-12-28T14:53:33.254Z,9.50
2022-12-28T14:56:06.189Z,9.50
2022-12-28T14:58:47.832Z,9.40
2022-12-28T15:01:20.988Z,9.50
2022-12-28T15:03:54.541Z,9.40
2022-12-28T15:06:29.120Z,9.40
2022-12-28T15:08:59.764Z,9.30
2022-12-28T15:11:31.267Z,9.20
2022-12-28T15:13:59.667Z,9.10
2022-12-28T15:16:27.911Z,9.00
2022-12-28T15:18:56.623Z,9.00
2022-12-28T15:21:26.738Z,8.80
2022-12-28T15:24:01.431Z,8.70
2022-12-28T15:26:29.623Z,8.60
2022-12-28T15:28:57.843Z,8.40
2022-12-28T15:31:26.066Z,8.20
2022-12-28T15:33:54.282Z,8.20
2022-12-28T15:36:24.810Z,8.00
2022-12-28T15:38:57.805Z,7.90
2022-12-28T15:41:43.343Z,7.70
2022-12-28T15:44:13.287Z,7.60
2022-12-28T15:46:41.575Z,7.60
2022-12-28T15:49:12.800Z,7.50
2022-12-28T15:51:41.539Z,7.50
2022-12-28T15:54:11.250Z,7.50
2022-12-28T15:56:41.719Z,7.20
2022-12-28T15:59:14.082Z,7.10
2022-12-28T16:01:45.018Z,7.00
2022-12-28T16:04:13.411Z,6.90
2022-12-28T16:06:44.823Z,6.70
2022-12-28T16:09:15.911Z,6.50
2022-12-28T16:11:45.009Z,6.40
2022-12-28T16:14:17.803Z,6.20
2022-12-28T16:16:47.099Z,6.00
2022-12-28T16:19:16.401Z,5.90
2022-12-28T16:21:44.988Z,5.80
2022-12-28T16:24:14.736Z,5.70
2022-12-28T16:26:44.945Z,5.60
2022-12-28T16:29:13.258Z,5.50
2022-12-28T16:31:41.890Z,5.40
2022-12-28T16:34:13.520Z,5.30
2022-12-28T16:36:41.761Z,5.20
2022-12-28T16:39:13.756Z,5.20
2022-12-28T16:41:43.689Z,5.20
2022-12-28T16:44:16.130Z,5.00
2022-12-28T16:46:44.827Z,5.20
2022-12-28T16:49:13.534Z,5.10
2022-12-28T16:51:43.904Z,4.90
2022-12-28T16:54:15.945Z,5.00
2022-12-28T16:56:46.522Z,5.00
2022-12-28T16:59:17.130Z,4.90
2022-12-28T17:01:45.984Z,4.80
2022-12-28T17:04:14.671Z,4.70
2022-12-28T17:06:51.811Z,4.70
2022-12-28T17:09:20.754Z,4.60
2022-12-28T17:11:51.493Z,4.60
2022-12-28T17:14:36.559Z,4.50
2022-12-28T17:17:05.862Z,4.70
2022-12-28T17:19:34.482Z,4.40
2022-12-28T17:22:02.803Z,4.70
2022-12-28T17:24:30.973Z,4.70
2022-12-28T17:27:07.210Z,4.50
2022-12-28T17:29:37.236Z,4.40
2022-12-28T17:32:07.485Z,4.40
2022-12-28T17:34:36.164Z,4.40
2022-12-28T17:37:04.652Z,4.50
2022-12-28T17:39:39.544Z,4.90
2022-12-28T17:42:10.293Z,4.30
2022-12-28T17:44:38.461Z,4.20
2022-12-28T17:47:06.697Z,4.00
2022-12-28T17:49:34.793Z,3.90
2022-12-28T17:52:02.888Z,3.80
2022-12-28T17:54:31.030Z,3.80
2022-12-28T17:56:59.512Z,3.80
2022-12-28T17:59:29.274Z,3.80
2022-12-28T18:01:58.210Z,3.90
2022-12-28T18:04:26.441Z,3.90
2022-12-28T18:06:54.508Z,3.90
2022-12-28T18:09:27.730Z,3.90
2022-12-28T18:11:56.421Z,3.80
2022-12-28T18:14:24.644Z,3.70
2022-12-28T18:16:54.419Z,3.70
2022-12-28T18:19:22.627Z,3.60
2022-12-28T18:21:50.729Z,3.70
2022-12-28T18:24:20.918Z,3.70
2022-12-28T18:26:49.280Z,3.70
2022-12-28T18:29:17.397Z,3.60
2022-12-28T18:31:45.523Z,3.90
2022-12-28T18:34:15.548Z,4.10
2022-12-28T18:36:43.652Z,4.20
2022-12-28T18:39:11.750Z,4.30
2022-12-28T18:41:39.916Z,4.20
2022-12-28T18:44:08.170Z,4.20
2022-12-28T18:46:36.356Z,4.00
2022-12-28T18:49:04.614Z,3.90
2022-12-28T18:51:34.075Z,3.80
2022-12-28T18:54:02.161Z,3.60
2022-12-28T18:56:30.271Z,3.50
2022-12-28T18:58:58.907Z,3.40
2022-12-28T19:04:18.101Z,3.30
2022-12-28T19:06:48.125Z,3.40
2022-12-28T19:09:16.870Z,3.40
2022-12-28T19:11:45.221Z,3.40
2022-12-28T19:14:15.446Z,3.30
2022-12-28T19:16:45.002Z,3.20
2022-12-28T19:19:13.239Z,3.30
2022-12-28T19:21:43.439Z,3.30
2022-12-28T19:24:15.424Z,3.30
2022-12-28T19:26:44.306Z,3.30
2022-12-28T19:29:13.192Z,3.30
2022-12-28T19:31:41.420Z,3.00
2022-12-28T19:34:09.703Z,3.20
2022-12-28T19:36:37.878Z,3.30
2022-12-28T19:39:06.232Z,3.30
2022-12-28T19:41:36.289Z,3.40
2022-12-28T19:44:04.663Z,3.20
2022-12-28T19:46:32.889Z,3.20
2022-12-28T19:49:02.598Z,3.10
2022-12-28T19:51:32.332Z,3.00
2022-12-28T19:54:01.301Z,2.90
2022-12-28T19:56:29.476Z,3.00
2022-12-28T19:59:05.471Z,3.20
2022-12-28T20:01:36.052Z,3.10
2022-12-28T20:04:12.393Z,3.00
2022-12-28T20:06:43.235Z,3.10
2022-12-28T20:09:12.441Z,3.00
2022-12-28T20:11:40.804Z,3.00
2022-12-28T20:14:13.980Z,3.00
2022-12-28T20:16:42.658Z,2.90
2022-12-28T20:19:12.913Z,2.90
2022-12-28T20:21:42.484Z,2.80
2022-12-28T20:24:12.757Z,2.70
2022-12-28T20:26:40.935Z,2.60
2022-12-28T20:29:10.653Z,2.50
2022-12-28T20:31:38.902Z,2.40
2022-12-28T20:34:07.148Z,2.40
2022-12-28T20:36:35.383Z,2.30
2022-12-28T20:39:04.055Z,2.40
2022-12-28T20:41:51.207Z,2.40
2022-12-28T20:44:25.861Z,2.30
2022-12-28T20:46:55.312Z,2.30
2022-12-28T20:49:23.976Z,2.40
2022-12-28T20:51:52.230Z,2.40
2022-12-28T20:54:21.008Z,2.40
2022-12-28T20:56:54.249Z,2.50
2022-12-28T20:59:26.146Z,2.50
2022-12-28T21:01:55.109Z,2.60
2022-12-28T21:04:24.430Z,2.50
2022-12-28T21:06:53.328Z,2.50
2022-12-28T21:09:21.655Z,2.50
2022-12-28T21:11:49.811Z,2.50
2022-12-28T21:14:17.900Z,2.50
2022-12-28T21:16:47.608Z,2.50
2022-12-28T21:19:15.780Z,2.50
2022-12-28T21:21:43.871Z,2.60
2022-12-28T21:24:11.965Z,2.60
2022-12-28T21:26:40.060Z,2.50
2022-12-28T21:29:08.194Z,2.60
2022-12-28T21:31:36.397Z,2.50
2022-12-28T21:34:05.961Z,2.50
2022-12-28T21:36:34.075Z,2.40
2022-12-28T21:39:02.218Z,2.30
2022-12-28T21:41:50.662Z,2.10
2022-12-28T21:44:21.112Z,2.00
2022-12-28T21:46:51.772Z,1.90
2022-12-28T21:49:22.569Z,1.80
2022-12-28T21:51:51.539Z,1.80
2022-12-28T21:54:22.065Z,1.70
2022-12-28T21:56:52.041Z,1.60
2022-12-28T21:59:21.334Z,1.60
2022-12-28T22:02:06.871Z,1.70
2022-12-28T22:05:02.279Z,1.70
2022-12-28T22:07:31.492Z,2.10
2022-12-28T22:10:17.233Z,2.30
2022-12-28T22:12:45.401Z,2.50
2022-12-28T22:15:32.896Z,2.50
2022-12-28T22:18:04.568Z,2.40
2022-12-28T22:20:36.140Z,2.40
2022-12-28T22:23:04.849Z,2.40
2022-12-28T22:25:33.545Z,2.40
2022-12-28T22:28:01.906Z,2.30
2022-12-28T22:30:31.105Z,2.30
2022-12-28T22:32:59.203Z,2.20
2022-12-28T22:35:27.865Z,2.20
2022-12-28T22:37:57.448Z,2.20
2022-12-28T22:40:25.611Z,2.20
2022-12-28T22:42:53.915Z,2.20
2022-12-28T22:45:23.927Z,2.20
2022-12-28T22:47:55.354Z,2.20
2022-12-28T22:50:23.472Z,2.40
2022-12-28T22:52:51.647Z,2.40
2022-12-28T22:55:21.266Z,2.50
2022-12-28T22:57:49.350Z,2.50
2022-12-28T23:00:18.456Z,2.40
2022-12-28T23:02:50.269Z,2.50
2022-12-28T23:05:18.879Z,2.60
2022-12-28T23:07:47.773Z,2.80
2022-12-28T23:10:18.579Z,2.80
2022-12-28T23:12:48.549Z,2.80
2022-12-28T23:15:16.552Z,2.90
2022-12-28T23:17:45.231Z,3.10
2022-12-28T23:20:31.349Z,3.50
2022-12-28T23:23:24.393Z,3.70
2022-12-28T23:29:11.364Z,4.60
2022-12-28T23:32:00.817Z,5.00
2022-12-28T23:34:35.046Z,4.90
2022-12-28T23:37:03.339Z,4.60
2022-12-28T23:39:31.584Z,4.30
2022-12-28T23:41:59.806Z,4.10
2022-12-28T23:44:29.798Z,3.90
2022-12-28T23:46:59.771Z,3.80
2022-12-28T23:49:28.515Z,3.70
2022-12-28T23:51:56.628Z,3.80
2022-12-28T23:54:24.966Z,3.80
2022-12-28T23:56:53.713Z,3.70
2022-12-28T23:59:22.201Z,3.80
